Time;durP1;ratioP1;P1;durP2;ratioP2;P2;SDS_P1;SDS_P2;PMS_P1;PMS_P2;Temp;Humidity;BMP_temperature;BMP_pressure;BME280_temperature;BME280_humidity;BME280_pressure;Samples;Min_cycle;Max_cycle;Signal;HPM_P1;HPM_P2
2023/10/20 00:00:06;;;;;;;11.45;9.80;;;17.80;74.80;;;;;;5038659;28;20056;-48
2023/10/20 00:02:35;;;;;;;12.30;8.97;;;17.80;74.80;;;;;;5038828;28;20045;-43
2023/10/20 00:05:04;;;;;;;12.00;9.65;;;17.80;74.80;;;;;;5037229;28;20053;-42
2023/10/20 00:07:32;;;;;;;12.48;9.27;;;17.80;74.80;;;;;;5039119;28;20060;-46
2023/10/20 00:09:59;;;;;;;12.27;9.77;;;17.80;74.80;;;;;;5039319;28;20060;-44
2023/10/20 00:12:27;;;;;;;11.75;9.02;;;17.80;74.90;;;;;;5038630;28;20049;-45
2023/10/20 00:14:54;;;;;;;15.38;10.00;;;17.80;75.00;;;;;;5038032;28;20056;-47
2023/10/20 00:17:21;;;;;;;14.05;10.38;;;17.80;75.00;;;;;;5038073;28;20052;-44
2023/10/20 00:19:50;;;;;;;13.68;10.15;;;17.80;75.10;;;;;;5038556;28;20057;-45
2023/10/20 00:22:17;;;;;;;12.00;9.70;;;17.80;75.00;;;;;;5039402;28;20064;-42
2023/10/20 00:24:45;;;;;;;11.88;9.10;;;17.80;75.00;;;;;;5040001;28;20061;-43
2023/10/20 00:27:13;;;;;;;11.02;8.63;;;17.80;75.00;;;;;;5039231;28;20037;-43
2023/10/20 00:29:40;;;;;;;12.10;9.27;;;17.80;75.00;;;;;;5035956;28;20045;-43
2023/10/20 00:32:10;;;;;;;15.15;9.57;;;17.80;75.00;;;;;;5038019;28;20052;-44
2023/10/20 00:34:38;;;;;;;12.27;10.02;;;17.80;75.00;;;;;;5037309;28;20055;-46
2023/10/20 00:37:07;;;;;;;11.55;9.52;;;17.80;75.00;;;;;;5033295;28;20048;-44
2023/10/20 00:39:35;;;;;;;12.55;9.55;;;17.80;75.00;;;;;;5037903;28;20055;-44
2023/10/20 00:42:03;;;;;;;16.17;9.90;;;17.80;75.00;;;;;;5037590;28;20056;-44
2023/10/20 00:44:30;;;;;;;11.10;9.13;;;17.80;74.90;;;;;;5037477;28;20061;-45
2023/10/20 00:46:58;;;;;;;11.77;8.80;;;17.80;74.90;;;;;;5036323;28;20091;-43
2023/10/20 00:49:25;;;;;;;12.90;9.57;;;17.90;75.00;;;;;;5038245;28;20064;-43
2023/10/20 00:51:52;;;;;;;13.57;10.68;;;17.80;75.00;;;;;;5039252;28;20052;-44
2023/10/20 00:54:22;;;;;;;10.45;9.10;;;17.90;75.00;;;;;;5043206;28;21300;-42
2023/10/20 00:56:49;;;;;;;11.68;9.30;;;17.90;75.00;;;;;;5043212;28;20061;-42
2023/10/20 00:59:16;;;;;;;12.18;9.95;;;17.90;75.00;;;;;;5041125;28;20053;-45
2023/10/20 01:01:44;;;;;;;11.25;8.13;;;17.80;75.00;;;;;;5042704;28;20064;-43
2023/10/20 01:04:11;;;;;;;11.70;8.95;;;17.90;75.10;;;;;;5039576;28;20053;-45
2023/10/20 01:06:38;;;;;;;10.63;8.25;;;17.90;75.00;;;;;;5043319;28;20057;-46
2023/10/20 01:09:09;;;;;;;9.45;8.13;;;17.90;75.00;;;;;;5042254;28;20394;-42
2023/10/20 01:11:39;;;;;;;10.43;8.32;;;17.90;75.00;;;;;;5040520;28;20068;-44
2023/10/20 01:14:06;;;;;;;10.95;8.35;;;17.90;74.90;;;;;;5041744;28;20056;-44
2023/10/20 01:16:33;;;;;;;11.07;7.55;;;17.90;74.90;;;;;;5040802;28;20057;-45
2023/10/20 01:19:01;;;;;;;9.55;7.97;;;17.90;74.80;;;;;;5042606;28;20052;-45
2023/10/20 01:21:28;;;;;;;9.32;8.02;;;17.90;74.80;;;;;;5039370;28;20583;-44
2023/10/20 01:23:57;;;;;;;10.48;7.72;;;17.90;74.80;;;;;;5040701;28;20057;-42
2023/10/20 01:26:24;;;;;;;8.38;6.90;;;17.90;74.90;;;;;;5043126;28;20060;-44
2023/10/20 01:28:51;;;;;;;7.88;6.22;;;17.90;74.80;;;;;;5043579;28;20045;-46
2023/10/20 01:31:19;;;;;;;9.55;6.47;;;17.90;74.80;;;;;;5038683;28;20064;-46
2023/10/20 01:33:46;;;;;;;9.60;6.82;;;17.90;74.70;;;;;;5041459;28;20520;-42
2023/10/20 01:36:13;;;;;;;6.72;6.00;;;17.90;74.70;;;;;;5040365;28;20057;-43
2023/10/20 01:38:40;;;;;;;6.68;5.57;;;17.90;74.80;;;;;;5042873;28;20052;-42
2023/10/20 01:41:09;;;;;;;7.00;5.57;;;17.90;74.70;;;;;;5040763;28;20501;-46
2023/10/20 01:43:36;;;;;;;6.70;5.28;;;17.90;74.80;;;;;;5040808;28;20556;-43
2023/10/20 01:46:05;;;;;;;9.10;5.72;;;17.90;74.90;;;;;;5040893;28;20053;-42
2023/10/20 01:48:32;;;;;;;6.13;5.10;;;17.90;74.90;;;;;;5042795;28;20056;-44
2023/10/20 01:51:00;;;;;;;7.80;5.40;;;17.90;74.90;;;;;;5041998;28;20409;-44
2023/10/20 01:53:28;;;;;;;10.00;5.18;;;17.90;74.90;;;;;;5041449;28;20444;-43
2023/10/20 01:55:55;;;;;;;5.22;4.72;;;17.90;74.90;;;;;;5044568;28;20508;-44
2023/10/20 01:58:24;;;;;;;5.57;4.80;;;17.90;74.80;;;;;;5042064;28;20045;-44
2023/10/20 02:00:52;;;;;;;5.10;4.60;;;17.90;74.80;;;;;;5040526;28;20056;-45
2023/10/20 02:03:20;;;;;;;7.15;4.72;;;17.90;74.80;;;;;;5039855;28;20061;-44
2023/10/20 02:05:47;;;;;;;4.82;3.88;;;17.90;74.70;;;;;;5041760;28;20048;-42
2023/10/20 02:08:15;;;;;;;9.07;4.65;;;17.90;74.70;;;;;;5042658;28;20045;-42
2023/10/20 02:10:44;;;;;;;9.05;3.95;;;17.90;74.60;;;;;;5039320;28;20060;-44
2023/10/20 02:13:11;;;;;;;4.07;3.67;;;17.90;74.80;;;;;;5041032;28;20057;-43
2023/10/20 02:15:46;;;;;;;5.15;3.75;;;17.90;74.80;;;;;;5038958;28;20053;-44
2023/10/20 02:18:13;;;;;;;5.22;3.60;;;17.90;74.80;;;;;;5040673;28;20045;-44
2023/10/20 02:20:40;;;;;;;4.28;3.38;;;17.90;74.70;;;;;;5040386;28;20068;-45
2023/10/20 02:23:08;;;;;;;4.80;3.95;;;17.90;74.70;;;;;;5041644;28;20075;-43
2023/10/20 02:25:35;;;;;;;3.80;3.15;;;17.90;74.70;;;;;;5039602;28;20063;-44
2023/10/20 02:28:02;;;;;;;5.38;3.45;;;17.90;74.80;;;;;;5039495;28;20053;-47
2023/10/20 02:30:31;;;;;;;4.32;3.92;;;17.90;74.80;;;;;;5038657;28;20052;-44
2023/10/20 02:33:01;;;;;;;5.05;3.60;;;17.90;74.80;;;;;;5041130;28;20052;-45
2023/10/20 02:35:29;;;;;;;8.57;4.40;;;17.90;74.80;;;;;;5041476;28;20057;-42
2023/10/20 02:37:56;;;;;;;5.45;3.47;;;17.90;74.70;;;;;;5039782;28;20401;-46
2023/10/20 02:40:23;;;;;;;5.05;3.38;;;17.90;74.60;;;;;;5040398;28;20045;-45
2023/10/20 02:42:51;;;;;;;4.97;4.05;;;17.90;74.60;;;;;;5041266;28;20493;-43
2023/10/20 02:45:18;;;;;;;6.75;3.70;;;17.80;74.50;;;;;;5036315;28;20055;-46
2023/10/20 02:47:45;;;;;;;5.07;4.32;;;17.80;74.60;;;;;;5039994;28;20887;-43
2023/10/20 02:50:15;;;;;;;6.88;3.83;;;17.80;74.60;;;;;;5039803;28;20057;-46
2023/10/20 02:52:43;;;;;;;5.85;4.43;;;17.80;74.70;;;;;;5039164;28;20053;-41
2023/10/20 02:55:10;;;;;;;7.13;4.30;;;17.80;74.70;;;;;;5038743;28;20390;-43
2023/10/20 02:57:38;;;;;;;5.07;4.57;;;17.80;74.80;;;;;;5038112;28;20060;-42
2023/10/20 03:00:10;;;;;;;6.80;4.95;;;17.80;74.80;;;;;;5037913;28;20064;-43
2023/10/20 03:02:37;;;;;;;7.07;5.00;;;17.80;74.90;;;;;;5038070;28;20505;-42
2023/10/20 03:05:06;;;;;;;7.10;5.50;;;17.80;74.80;;;;;;5041643;28;20056;-42
2023/10/20 03:07:35;;;;;;;9.68;5.45;;;17.80;74.90;;;;;;5038611;28;20409;-41
2023/10/20 03:10:02;;;;;;;6.00;5.32;;;17.80;74.90;;;;;;5038288;28;20056;-45
2023/10/20 03:12:29;;;;;;;9.43;6.00;;;17.80;74.90;;;;;;5040777;28;20045;-44
2023/10/20 03:14:57;;;;;;;7.75;5.72;;;17.80;75.00;;;;;;5039684;28;20061;-44
2023/10/20 03:17:25;;;;;;;9.13;6.30;;;17.80;74.90;;;;;;5038735;28;20053;-44
2023/10/20 03:19:52;;;;;;;8.48;6.10;;;17.80;75.00;;;;;;5037504;28;20521;-42
2023/10/20 03:22:19;;;;;;;8.35;6.25;;;17.80;74.90;;;;;;5035868;28;20061;-43
2023/10/20 03:24:48;;;;;;;7.32;5.80;;;17.80;75.00;;;;;;5037222;28;20057;-45
2023/10/20 03:27:15;;;;;;;7.75;6.30;;;17.80;75.00;;;;;;5040597;28;20048;-44
2023/10/20 03:29:42;;;;;;;8.77;5.88;;;17.80;75.00;;;;;;5038189;28;20404;-44
2023/10/20 03:32:10;;;;;;;7.45;5.85;;;17.80;75.60;;;;;;5037088;28;20516;-42
2023/10/20 03:34:37;;;;;;;10.63;6.13;;;17.80;75.00;;;;;;5038216;28;20052;-41
2023/10/20 03:37:04;;;;;;;7.40;5.75;;;17.80;75.00;;;;;;5036802;28;20580;-43
2023/10/20 03:39:33;;;;;;;7.82;5.95;;;17.80;74.90;;;;;;5039147;28;20049;-46
2023/10/20 03:42:02;;;;;;;9.82;5.70;;;17.80;75.00;;;;;;5041001;28;20057;-44
2023/10/20 03:44:30;;;;;;;12.77;8.32;;;17.80;74.90;;;;;;5037432;28;20057;-45
2023/10/20 03:47:00;;;;;;;44.25;24.80;;;17.80;74.90;;;;;;5036467;28;20052;-45
2023/10/20 03:49:31;;;;;;;29.55;17.58;;;17.80;74.90;;;;;;5038815;28;20045;-44
2023/10/20 03:51:59;;;;;;;10.70;7.00;;;17.80;75.00;;;;;;5037040;28;20057;-42
2023/10/20 03:54:26;;;;;;;5.82;4.80;;;17.80;75.00;;;;;;5039046;28;20041;-42
2023/10/20 03:56:57;;;;;;;6.88;4.75;;;17.80;75.00;;;;;;5038895;28;20049;-46
2023/10/20 03:59:26;;;;;;;5.70;4.95;;;17.80;75.00;;;;;;5040558;28;20405;-44
2023/10/20 04:01:53;;;;;;;6.68;4.45;;;17.80;75.00;;;;;;5035800;28;20465;-43
2023/10/20 04:04:21;;;;;;;5.55;4.30;;;17.80;75.00;;;;;;5037477;28;20493;-45
2023/10/20 04:06:49;;;;;;;4.90;3.78;;;17.80;75.00;;;;;;5039381;28;20045;-43
2023/10/20 04:09:17;;;;;;;6.25;4.20;;;17.80;74.90;;;;;;5038647;28;20057;-42
2023/10/20 04:11:45;;;;;;;4.93;3.90;;;17.80;75.00;;;;;;5036630;28;20057;-43
2023/10/20 04:14:12;;;;;;;5.13;3.80;;;17.80;75.00;;;;;;5037116;28;20489;-42
2023/10/20 04:16:41;;;;;;;5.22;3.80;;;17.80;75.00;;;;;;5034396;28;20087;-42
2023/10/20 04:19:10;;;;;;;59.28;30.23;;;17.80;75.00;;;;;;5035918;28;20053;-43
2023/10/20 04:21:39;;;;;;;18.98;11.93;;;17.80;75.00;;;;;;5033308;28;20512;-43
2023/10/20 04:24:09;;;;;;;7.63;4.97;;;17.80;75.00;;;;;;5035007;28;20058;-44
2023/10/20 04:26:38;;;;;;;5.55;3.60;;;17.90;75.00;;;;;;5036653;28;20044;-43
2023/10/20 04:29:23;;;;;;;5.70;3.47;;;17.80;74.90;;;;;;5035387;28;20053;-42
2023/10/20 04:43:34;;;;;;;4.88;2.92;;;17.80;74.70;;;;;;5017216;28;20268;-43
2023/10/20 04:54:23;;;;;;;3.60;2.17;;;17.80;74.60;;;;;;5057381;27;20647;-42
2023/10/20 04:59:31;;;;;;;2.85;2.40;;;17.80;74.60;;;;;;5053396;28;20477;-44
2023/10/20 05:02:05;;;;;;;4.07;2.35;;;17.80;74.50;;;;;;5050122;28;20052;-44
2023/10/20 05:04:37;;;;;;;3.00;2.00;;;17.80;74.60;;;;;;5055299;28;20076;-46
2023/10/20 05:07:08;;;;;;;4.88;2.20;;;17.80;74.50;;;;;;5055037;28;20434;-43
2023/10/20 05:09:43;;;;;;;2.20;2.00;;;17.70;74.50;;;;;;5049112;28;20045;-42
2023/10/20 05:12:10;;;;;;;5.65;2.10;;;17.80;74.60;;;;;;5050878;28;20527;-44
2023/10/20 05:14:37;;;;;;;4.03;2.25;;;17.80;74.50;;;;;;5050787;28;20057;-46
2023/10/20 05:17:09;;;;;;;4.82;2.17;;;17.70;74.50;;;;;;5049913;28;20071;-44
2023/10/20 05:19:37;;;;;;;2.00;1.80;;;17.80;74.50;;;;;;5051287;28;20504;-46
2023/10/20 05:22:04;;;;;;;2.47;1.98;;;17.80;74.50;;;;;;5051645;28;20045;-43
2023/10/20 05:24:32;;;;;;;1.98;1.77;;;17.70;74.50;;;;;;5046956;28;20115;-43
2023/10/20 05:27:01;;;;;;;2.15;1.77;;;17.70;74.40;;;;;;5052052;28;20053;-44
2023/10/20 05:29:28;;;;;;;46.33;22.88;;;17.70;74.40;;;;;;5051555;28;20049;-44
2023/10/20 05:31:55;;;;;;;11.15;6.00;;;17.70;74.40;;;;;;5046535;28;20489;-43
2023/10/20 05:34:23;;;;;;;3.60;2.65;;;17.70;74.30;;;;;;5047246;28;20053;-46
2023/10/20 05:36:50;;;;;;;5.78;1.92;;;17.70;74.40;;;;;;5043967;28;20409;-43
2023/10/20 05:39:21;;;;;;;4.38;2.10;;;17.70;74.30;;;;;;5046519;28;20060;-46
2023/10/20 05:41:48;;;;;;;2.38;1.80;;;17.70;74.40;;;;;;5050811;28;20045;-44
2023/10/20 05:44:22;;;;;;;4.63;1.98;;;17.70;74.40;;;;;;5045725;28;20049;-45
2023/10/20 05:46:49;;;;;;;2.40;1.95;;;17.70;74.40;;;;;;5048938;28;20541;-43
2023/10/20 05:49:16;;;;;;;4.38;2.20;;;17.70;74.40;;;;;;5051560;28;20064;-43
2023/10/20 05:51:45;;;;;;;2.90;2.30;;;17.70;74.40;;;;;;5048990;28;20060;-44
2023/10/20 05:54:12;;;;;;;3.13;2.20;;;17.70;74.40;;;;;;5047271;28;20278;-43
2023/10/20 05:56:39;;;;;;;3.95;2.33;;;17.70;74.30;;;;;;5054027;28;20045;-45
2023/10/20 05:59:06;;;;;;;3.63;2.70;;;17.70;75.00;;;;;;5052955;28;20049;-43
2023/10/20 06:01:36;;;;;;;3.45;2.60;;;17.70;74.30;;;;;;5045437;28;20049;-43
2023/10/20 06:04:04;;;;;;;3.97;2.70;;;17.70;74.20;;;;;;5044231;28;20052;-43
2023/10/20 06:06:31;;;;;;;4.07;3.08;;;17.70;74.20;;;;;;5037539;28;20041;-45
2023/10/20 06:08:58;;;;;;;8.75;2.85;;;17.70;74.80;;;;;;5038543;28;20045;-44
2023/10/20 06:11:26;;;;;;;3.20;2.80;;;17.70;74.00;;;;;;5035317;28;20053;-44
2023/10/20 06:13:53;;;;;;;5.30;3.10;;;17.70;73.90;;;;;;5037274;28;20060;-46
2023/10/20 06:16:20;;;;;;;5.10;3.30;;;17.70;74.00;;;;;;5034742;28;20056;-44
2023/10/20 06:18:49;;;;;;;3.83;3.30;;;17.70;74.10;;;;;;5036034;28;20061;-45
2023/10/20 06:21:17;;;;;;;5.68;3.50;;;17.60;73.90;;;;;;5036197;28;20060;-44
2023/10/20 06:23:46;;;;;;;5.15;3.42;;;17.60;73.90;;;;;;5036658;28;20068;-43
2023/10/20 06:26:13;;;;;;;6.28;3.67;;;17.60;73.80;;;;;;5036724;28;20497;-42
2023/10/20 06:28:40;;;;;;;5.18;3.70;;;17.60;73.80;;;;;;5038786;28;20045;-45
2023/10/20 06:31:27;;;;;;;4.50;3.25;;;17.60;73.80;;;;;;5032374;28;20041;-47
2023/10/20 06:34:00;;;;;;;10.02;3.75;;;17.60;73.90;;;;;;5034677;28;20052;-43
2023/10/20 06:36:27;;;;;;;6.72;4.20;;;17.60;73.80;;;;;;5038811;28;20057;-44
2023/10/20 06:38:54;;;;;;;4.60;3.90;;;17.60;73.80;;;;;;5035412;28;20049;-42
2023/10/20 06:41:22;;;;;;;6.15;3.92;;;17.60;73.80;;;;;;5028656;28;20124;-43
2023/10/20 06:43:50;;;;;;;5.55;4.50;;;17.60;73.70;;;;;;5031637;28;20049;-44
2023/10/20 06:46:19;;;;;;;8.02;4.97;;;17.60;73.80;;;;;;5032702;28;20052;-44
2023/10/20 06:48:47;;;;;;;7.47;4.93;;;17.60;73.70;;;;;;5038271;28;21512;-42
2023/10/20 06:51:16;;;;;;;6.43;4.20;;;17.60;73.70;;;;;;5035536;28;20068;-44
2023/10/20 06:53:43;;;;;;;9.68;4.53;;;17.60;73.70;;;;;;5035961;28;20421;-43
2023/10/20 06:56:11;;;;;;;58.60;29.40;;;17.60;73.70;;;;;;5030670;28;20128;-44
2023/10/20 06:58:38;;;;;;;21.23;13.55;;;17.60;73.70;;;;;;5027583;28;20049;-45
2023/10/20 07:01:06;;;;;;;8.98;5.90;;;17.60;73.70;;;;;;5021336;28;20052;-45
2023/10/20 07:03:33;;;;;;;6.53;5.22;;;17.60;73.70;;;;;;5034510;28;20421;-45
2023/10/20 07:06:01;;;;;;;5.68;4.63;;;17.60;73.70;;;;;;5028924;28;20049;-44
2023/10/20 07:08:30;;;;;;;7.00;5.32;;;17.60;73.60;;;;;;5030820;28;20052;-44
2023/10/20 07:11:02;;;;;;;10.95;5.25;;;17.60;73.60;;;;;;5036860;28;20391;-43
2023/10/20 07:13:29;;;;;;;8.38;5.60;;;17.60;73.50;;;;;;5036747;28;20049;-42
2023/10/20 07:15:57;;;;;;;5.95;4.78;;;17.50;73.40;;;;;;5037654;28;20052;-43
2023/10/20 07:18:25;;;;;;;9.50;5.97;;;17.60;73.40;;;;;;5035598;28;20057;-43
2023/10/20 07:20:54;;;;;;;8.38;5.53;;;17.60;73.40;;;;;;5034664;28;20056;-44
2023/10/20 07:23:22;;;;;;;7.30;5.28;;;17.60;73.30;;;;;;5034588;28;20489;-43
2023/10/20 07:25:52;;;;;;;6.85;5.38;;;17.60;73.30;;;;;;5032816;28;20064;-44
2023/10/20 07:28:20;;;;;;;8.70;5.28;;;17.60;73.40;;;;;;5036982;28;20521;-44
2023/10/20 07:30:47;;;;;;;7.18;5.95;;;17.60;73.30;;;;;;5034406;28;20060;-41
2023/10/20 07:33:14;;;;;;;8.75;5.57;;;17.60;73.40;;;;;;5029051;28;20386;-45
2023/10/20 07:35:42;;;;;;;9.20;6.05;;;17.60;73.50;;;;;;5033711;28;20410;-45
2023/10/20 07:38:09;;;;;;;11.75;6.18;;;17.60;73.30;;;;;;5032004;28;20060;-41
2023/10/20 07:40:37;;;;;;;7.80;5.38;;;17.60;73.30;;;;;;5036780;28;20048;-42
2023/10/20 07:43:07;;;;;;;7.57;5.90;;;17.50;73.30;;;;;;5035085;28;20060;-42
2023/10/20 07:45:38;;;;;;;6.65;5.50;;;17.50;73.30;;;;;;5034921;28;20413;-42
2023/10/20 07:48:06;;;;;;;8.52;5.72;;;17.50;73.30;;;;;;5035631;28;20052;-44
2023/10/20 07:50:33;;;;;;;8.05;5.50;;;17.50;73.30;;;;;;5032362;28;20057;-41
2023/10/20 07:53:01;;;;;;;8.20;6.10;;;17.50;73.30;;;;;;5032633;28;20075;-43
2023/10/20 07:55:32;;;;;;;5.47;4.78;;;17.60;73.30;;;;;;5026785;28;20707;-43
2023/10/20 07:58:38;;;;;;;6.78;5.20;;;17.50;73.30;;;;;;5031664;28;20060;-43
2023/10/20 08:01:06;;;;;;;7.97;5.80;;;17.50;73.30;;;;;;5021892;28;20451;-42
2023/10/20 08:03:34;;;;;;;6.68;5.22;;;17.50;73.20;;;;;;5035031;28;20061;-42
2023/10/20 08:06:02;;;;;;;7.25;5.35;;;17.50;73.20;;;;;;5035113;28;20059;-42
2023/10/20 08:08:30;;;;;;;6.10;4.65;;;17.50;73.10;;;;;;5035098;28;20060;-42
2023/10/20 08:10:59;;;;;;;8.00;5.40;;;17.50;73.10;;;;;;5034913;28;20049;-43
2023/10/20 08:13:27;;;;;;;7.10;5.30;;;17.60;73.20;;;;;;5030680;28;20053;-43
2023/10/20 08:15:56;;;;;;;6.28;5.07;;;17.50;73.20;;;;;;5034219;28;20053;-41
2023/10/20 08:18:23;;;;;;;7.00;4.72;;;17.50;73.20;;;;;;5032801;28;20057;-43
2023/10/20 08:20:51;;;;;;;6.47;5.03;;;17.50;73.30;;;;;;5036159;28;20075;-43
2023/10/20 08:23:20;;;;;;;7.95;5.10;;;17.50;73.30;;;;;;5035208;28;20057;-42
2023/10/20 08:25:49;;;;;;;6.53;5.00;;;17.50;73.30;;;;;;5033538;28;20049;-45
2023/10/20 08:28:16;;;;;;;6.93;5.18;;;17.50;73.30;;;;;;5034872;28;20060;-42
2023/10/20 08:30:43;;;;;;;9.32;5.03;;;17.60;73.40;;;;;;5032612;28;20060;-44
2023/10/20 08:33:12;;;;;;;8.13;5.15;;;17.60;73.30;;;;;;5030442;28;20179;-44
2023/10/20 08:35:39;;;;;;;7.43;5.13;;;17.60;73.30;;;;;;5033949;28;20053;-43
2023/10/20 08:38:07;;;;;;;7.25;4.82;;;17.60;73.30;;;;;;5035525;28;20072;-43
2023/10/20 08:40:34;;;;;;;5.85;4.93;;;17.60;73.30;;;;;;5036324;28;20053;-45
2023/10/20 08:43:04;;;;;;;6.35;4.82;;;17.70;73.30;;;;;;5029804;28;20053;-46
2023/10/20 08:45:33;;;;;;;7.32;4.88;;;17.70;73.20;;;;;;5033097;28;20055;-43
2023/10/20 08:48:03;;;;;;;5.97;4.75;;;17.70;73.20;;;;;;5031830;28;20060;-46
2023/10/20 08:50:32;;;;;;;9.98;5.20;;;17.70;73.10;;;;;;5033972;28;20057;-45
2023/10/20 08:53:04;;;;;;;6.85;5.40;;;17.70;73.10;;;;;;5029693;28;20053;-46
2023/10/20 08:55:31;;;;;;;6.72;5.28;;;17.70;73.00;;;;;;5035138;28;20052;-45
2023/10/20 08:57:58;;;;;;;7.35;5.20;;;17.70;73.00;;;;;;5034657;28;20394;-46
2023/10/20 09:00:25;;;;;;;9.85;5.07;;;17.70;73.00;;;;;;5032194;28;20048;-47
2023/10/20 09:02:58;;;;;;;6.55;5.18;;;17.70;73.10;;;;;;5032999;28;20060;-43
2023/10/20 09:05:26;;;;;;;7.90;5.03;;;17.70;72.90;;;;;;5034804;28;20052;-45
2023/10/20 09:07:56;;;;;;;7.10;5.10;;;17.70;72.80;;;;;;5034836;28;20076;-47
2023/10/20 09:10:24;;;;;;;7.22;5.35;;;17.70;72.80;;;;;;5026037;28;20057;-45
2023/10/20 09:12:51;;;;;;;8.45;5.20;;;17.70;72.60;;;;;;5035707;28;20068;-42
2023/10/20 09:15:18;;;;;;;11.90;5.80;;;17.70;72.60;;;;;;5029012;28;20045;-43
2023/10/20 09:17:53;;;;;;;6.35;5.18;;;17.70;72.50;;;;;;5033693;28;20082;-43
2023/10/20 09:20:21;;;;;;;7.50;5.07;;;17.70;72.40;;;;;;5030591;28;20523;-45
2023/10/20 09:22:50;;;;;;;5.88;4.93;;;17.70;72.40;;;;;;5031130;28;20053;-45
2023/10/20 09:25:19;;;;;;;6.43;4.72;;;17.70;72.40;;;;;;5033775;28;20064;-43
2023/10/20 09:27:47;;;;;;;8.75;4.95;;;17.70;72.40;;;;;;5033506;28;20517;-44
2023/10/20 09:30:16;;;;;;;5.90;4.55;;;17.70;72.50;;;;;;5033002;28;20053;-44
2023/10/20 09:32:43;;;;;;;6.60;4.63;;;17.70;72.50;;;;;;5028693;28;20048;-45
2023/10/20 09:35:10;;;;;;;7.07;5.13;;;17.80;72.60;;;;;;5034977;28;20052;-46
2023/10/20 09:37:40;;;;;;;5.63;4.88;;;17.80;72.80;;;;;;5033553;28;20068;-47
2023/10/20 09:40:09;;;;;;;7.28;5.18;;;17.80;72.70;;;;;;5037360;28;20057;-45
2023/10/20 09:42:50;;;;;;;7.03;5.20;;;17.80;72.70;;;;;;5033629;28;20053;-46
2023/10/20 09:45:26;;;;;;;6.53;5.10;;;17.80;72.60;;;;;;5037097;28;20045;-44
2023/10/20 09:47:57;;;;;;;8.57;5.68;;;17.80;72.80;;;;;;5037850;28;20045;-44
2023/10/20 09:50:25;;;;;;;5.63;4.47;;;17.80;72.80;;;;;;5037891;28;20449;-45
2023/10/20 09:52:53;;;;;;;6.55;5.53;;;17.90;72.90;;;;;;5035015;28;20053;-44
2023/10/20 09:55:21;;;;;;;8.50;5.57;;;17.80;72.90;;;;;;5033366;28;20496;-43
2023/10/20 09:57:50;;;;;;;6.30;5.20;;;17.90;73.00;;;;;;5033096;28;20053;-43
2023/10/20 10:00:30;;;;;;;9.45;5.93;;;17.90;73.00;;;;;;5035445;28;20072;-44
2023/10/20 10:02:59;;;;;;;6.82;5.28;;;17.90;72.80;;;;;;5034255;28;20048;-48
2023/10/20 10:05:26;;;;;;;7.45;5.30;;;17.90;72.90;;;;;;5037921;28;20048;-43
2023/10/20 10:08:04;;;;;;;5.72;5.00;;;18.00;73.00;;;;;;5037749;28;20052;-42
2023/10/20 10:10:32;;;;;;;10.43;4.68;;;17.90;72.70;;;;;;5034859;28;20516;-47
2023/10/20 10:13:05;;;;;;;7.93;5.10;;;18.00;72.80;;;;;;5030741;28;20062;-43
2023/10/20 10:15:38;;;;;;;7.18;4.57;;;18.00;72.80;;;;;;5036077;28;20053;-46
2023/10/20 10:18:10;;;;;;;7.05;5.18;;;18.00;72.70;;;;;;5033893;28;20053;-46
2023/10/20 10:20:45;;;;;;;8.25;5.28;;;18.10;72.60;;;;;;5039245;28;20060;-44
2023/10/20 10:23:14;;;;;;;7.07;5.28;;;18.00;72.70;;;;;;5034522;28;20056;-45
2023/10/20 10:25:42;;;;;;;5.65;4.85;;;18.10;72.40;;;;;;5036736;28;20485;-44
2023/10/20 10:28:12;;;;;;;5.38;4.55;;;18.10;72.20;;;;;;5038115;28;20084;-47
2023/10/20 10:30:41;;;;;;;6.75;4.72;;;18.10;72.00;;;;;;5040216;28;20056;-45
2023/10/20 10:33:11;;;;;;;7.30;4.53;;;18.10;72.10;;;;;;5033531;28;20576;-43
2023/10/20 10:35:39;;;;;;;7.60;5.32;;;18.10;72.10;;;;;;5032618;28;20486;-45
2023/10/20 10:38:09;;;;;;;6.03;5.07;;;18.10;72.00;;;;;;5034586;28;20053;-46
2023/10/20 10:40:45;;;;;;;7.72;6.00;;;18.10;71.80;;;;;;5033512;28;20067;-45
2023/10/20 10:43:17;;;;;;;6.85;5.53;;;18.10;71.60;;;;;;5033983;28;20049;-43
2023/10/20 10:45:45;;;;;;;7.82;5.53;;;18.10;71.60;;;;;;5028834;28;20049;-45
2023/10/20 10:48:14;;;;;;;8.13;6.03;;;18.10;71.60;;;;;;5032781;28;20053;-45
2023/10/20 10:50:43;;;;;;;7.75;6.30;;;18.10;71.50;;;;;;5035509;28;20060;-41
2023/10/20 10:53:11;;;;;;;8.68;5.47;;;18.10;71.40;;;;;;5031110;28;20068;-43
2023/10/20 10:55:38;;;;;;;9.25;6.38;;;18.00;71.40;;;;;;5032308;28;20041;-46
2023/10/20 10:58:07;;;;;;;9.20;6.38;;;18.10;71.50;;;;;;5034425;28;20056;-41
2023/10/20 11:00:36;;;;;;;9.57;6.22;;;18.00;71.30;;;;;;5032332;28;20091;-41
2023/10/20 11:03:04;;;;;;;8.23;6.30;;;18.10;71.20;;;;;;5032314;28;20481;-42
2023/10/20 11:05:33;;;;;;;11.55;6.20;;;18.00;71.10;;;;;;5036719;28;20493;-41
2023/10/20 11:08:02;;;;;;;7.78;5.90;;;18.00;71.20;;;;;;5033526;28;20054;-47
2023/10/20 11:10:30;;;;;;;6.85;5.53;;;18.00;71.20;;;;;;5033751;28;20053;-44
2023/10/20 11:12:58;;;;;;;10.85;6.32;;;18.00;71.30;;;;;;5037275;28;20533;-45
2023/10/20 11:15:29;;;;;;;8.90;6.15;;;18.00;71.30;;;;;;5034809;28;20494;-42
2023/10/20 11:17:59;;;;;;;7.72;6.03;;;18.00;71.50;;;;;;5031266;28;20421;-42
2023/10/20 11:20:28;;;;;;;9.43;6.63;;;18.00;71.50;;;;;;5038596;28;20079;-41
2023/10/20 11:22:56;;;;;;;8.93;6.18;;;18.00;71.60;;;;;;5033769;28;20052;-42
2023/10/20 11:25:24;;;;;;;10.75;6.80;;;18.00;71.50;;;;;;5036996;28;20060;-42
2023/10/20 11:27:54;;;;;;;8.50;6.18;;;18.00;71.40;;;;;;5037788;28;20056;-42
2023/10/20 11:30:26;;;;;;;8.45;6.78;;;18.00;71.30;;;;;;5036016;28;20140;-46
2023/10/20 11:32:54;;;;;;;8.45;6.20;;;18.00;71.20;;;;;;5032269;28;20057;-44
2023/10/20 11:35:25;;;;;;;13.02;6.47;;;18.00;71.30;;;;;;5036385;28;21251;-44
2023/10/20 11:37:52;;;;;;;9.05;6.68;;;18.00;71.00;;;;;;5033704;28;20049;-41
2023/10/20 11:40:20;;;;;;;16.92;7.35;;;18.00;71.00;;;;;;5035176;28;20060;-42
2023/10/20 11:42:48;;;;;;;11.32;7.00;;;18.00;70.70;;;;;;5034700;28;20048;-41
2023/10/20 11:45:15;;;;;;;8.63;6.55;;;18.10;70.70;;;;;;5039126;28;20060;-42
2023/10/20 11:47:43;;;;;;;14.02;7.63;;;18.10;70.70;;;;;;5039757;28;20619;-45
2023/10/20 11:50:11;;;;;;;12.65;7.22;;;18.10;71.30;;;;;;5038130;28;20060;-42
2023/10/20 11:52:41;;;;;;;10.23;7.78;;;18.00;70.70;;;;;;5040873;28;20063;-48
2023/10/20 11:55:09;;;;;;;9.82;6.78;;;18.00;70.70;;;;;;5040887;28;20057;-44
2023/10/20 11:57:37;;;;;;;10.45;6.93;;;18.10;70.60;;;;;;5040223;28;20052;-45
2023/10/20 12:00:09;;;;;;;9.90;7.05;;;18.10;70.60;;;;;;5039088;28;20080;-46
2023/10/20 12:02:38;;;;;;;9.45;6.82;;;18.00;70.60;;;;;;5039007;28;20064;-46
2023/10/20 12:05:06;;;;;;;11.20;7.00;;;18.00;70.50;;;;;;5038198;28;20053;-43
2023/10/20 12:07:34;;;;;;;10.65;7.22;;;18.00;70.50;;;;;;5039155;28;20060;-43
2023/10/20 12:10:05;;;;;;;10.98;7.43;;;18.10;70.60;;;;;;5041750;28;20049;-42
2023/10/20 12:12:32;;;;;;;9.57;6.60;;;18.00;70.50;;;;;;5039705;28;20045;-44
2023/10/20 12:15:00;;;;;;;9.90;7.43;;;18.10;70.50;;;;;;5040258;28;20057;-42
2023/10/20 12:17:27;;;;;;;8.95;6.80;;;18.00;70.40;;;;;;5038771;28;20490;-44
2023/10/20 12:19:55;;;;;;;10.07;6.47;;;18.00;70.60;;;;;;5039472;28;20052;-45
2023/10/20 12:22:23;;;;;;;9.02;6.47;;;18.00;70.80;;;;;;5039442;28;20413;-44
2023/10/20 12:24:50;;;;;;;8.02;6.47;;;18.10;71.00;;;;;;5041394;28;20516;-43
2023/10/20 12:27:19;;;;;;;10.57;7.22;;;18.00;71.20;;;;;;5038217;28;20049;-43
2023/10/20 12:29:46;;;;;;;10.18;6.97;;;18.10;71.30;;;;;;5038479;28;20412;-44
2023/10/20 12:32:14;;;;;;;9.80;6.53;;;18.10;71.40;;;;;;5038743;28;20056;-43
2023/10/20 12:34:41;;;;;;;8.95;6.97;;;18.10;71.40;;;;;;5039845;28;20497;-42
2023/10/20 12:37:08;;;;;;;11.52;6.15;;;18.20;71.50;;;;;;5039590;28;20055;-44
2023/10/20 12:39:38;;;;;;;25.65;8.75;;;18.20;71.50;;;;;;5036156;28;20596;-45
2023/10/20 12:42:06;;;;;;;8.65;6.75;;;18.20;71.20;;;;;;5036661;28;20406;-44
2023/10/20 12:44:35;;;;;;;7.22;6.15;;;18.20;71.10;;;;;;5035212;28;20056;-41
2023/10/20 12:47:02;;;;;;;11.65;6.65;;;18.30;71.10;;;;;;5036904;28;20045;-43
2023/10/20 12:49:31;;;;;;;10.30;6.53;;;18.30;70.90;;;;;;5039299;28;20060;-47
2023/10/20 12:51:58;;;;;;;8.35;6.03;;;18.30;70.70;;;;;;5040056;28;20063;-44
2023/10/20 12:54:26;;;;;;;10.95;6.45;;;18.30;70.60;;;;;;5040330;28;20060;-43
2023/10/20 12:56:53;;;;;;;9.77;6.28;;;18.30;70.50;;;;;;5034932;28;20489;-46
2023/10/20 12:59:21;;;;;;;9.38;6.72;;;18.30;70.50;;;;;;5037697;28;20500;-44
2023/10/20 13:01:50;;;;;;;6.70;5.85;;;18.30;70.50;;;;;;5035288;28;20049;-43
2023/10/20 13:04:17;;;;;;;11.00;6.85;;;18.30;70.50;;;;;;5027037;28;20049;-46
2023/10/20 13:06:44;;;;;;;8.15;5.70;;;18.30;70.40;;;;;;5027818;28;20504;-43
2023/10/20 13:09:11;;;;;;;7.72;5.72;;;18.30;70.50;;;;;;5023754;28;20053;-44
2023/10/20 13:11:39;;;;;;;8.57;5.70;;;18.30;70.70;;;;;;5029554;28;20057;-43